sensor_id;sensor_type;location;lat;lon;timestamp;P1;durP1;ratioP1;P2;durP2;ratioP2
25359;SDS011;13311;51.386;0.016;2023-10-08T00:01:12;8.90;;;3.75;;
25359;SDS011;13311;51.386;0.016;2023-10-08T00:06:14;10.05;;;3.90;;
25359;SDS011;13311;51.386;0.016;2023-10-08T00:11:16;7.43;;;4.72;;
25359;SDS011;13311;51.386;0.016;2023-10-08T00:16:17;6.90;;;4.18;;
25359;SDS011;13311;51.386;0.016;2023-10-08T00:21:21;7.28;;;4.30;;
25359;SDS011;13311;51.386;0.016;2023-10-08T00:26:26;9.15;;;4.85;;
25359;SDS011;13311;51.386;0.016;2023-10-08T00:31:30;9.60;;;4.88;;
25359;SDS011;13311;51.386;0.016;2023-10-08T00:36:32;8.45;;;4.32;;
25359;SDS011;13311;51.386;0.016;2023-10-08T00:41:34;6.47;;;4.25;;
25359;SDS011;13311;51.386;0.016;2023-10-08T00:46:35;7.50;;;3.92;;
25359;SDS011;13311;51.386;0.016;2023-10-08T00:51:42;11.37;;;5.07;;
25359;SDS011;13311;51.386;0.016;2023-10-08T00:56:46;11.15;;;5.03;;
25359;SDS011;13311;51.386;0.016;2023-10-08T01:01:56;8.88;;;3.78;;
25359;SDS011;13311;51.386;0.016;2023-10-08T01:07:08;8.25;;;4.78;;
25359;SDS011;13311;51.386;0.016;2023-10-08T01:12:16;7.88;;;4.10;;
25359;SDS011;13311;51.386;0.016;2023-10-08T01:17:26;9.57;;;4.25;;
25359;SDS011;13311;51.386;0.016;2023-10-08T01:22:31;6.72;;;4.18;;
25359;SDS011;13311;51.386;0.016;2023-10-08T01:27:33;8.30;;;4.47;;
25359;SDS011;13311;51.386;0.016;2023-10-08T01:32:37;6.95;;;4.22;;
25359;SDS011;13311;51.386;0.016;2023-10-08T01:37:38;7.95;;;3.65;;
25359;SDS011;13311;51.386;0.016;2023-10-08T01:42:40;7.53;;;4.00;;
25359;SDS011;13311;51.386;0.016;2023-10-08T01:47:41;9.00;;;4.38;;
25359;SDS011;13311;51.386;0.016;2023-10-08T01:52:43;7.25;;;4.07;;
25359;SDS011;13311;51.386;0.016;2023-10-08T01:57:47;7.70;;;3.80;;
25359;SDS011;13311;51.386;0.016;2023-10-08T02:02:53;9.55;;;4.95;;
25359;SDS011;13311;51.386;0.016;2023-10-08T02:07:54;11.02;;;4.70;;
25359;SDS011;13311;51.386;0.016;2023-10-08T02:12:58;7.97;;;4.35;;
25359;SDS011;13311;51.386;0.016;2023-10-08T02:17:59;7.28;;;5.03;;
25359;SDS011;13311;51.386;0.016;2023-10-08T02:23:00;9.43;;;4.78;;
25359;SDS011;13311;51.386;0.016;2023-10-08T02:28:02;8.35;;;4.00;;
25359;SDS011;13311;51.386;0.016;2023-10-08T02:33:03;4.68;;;3.90;;
25359;SDS011;13311;51.386;0.016;2023-10-08T02:38:16;5.82;;;3.80;;
25359;SDS011;13311;51.386;0.016;2023-10-08T02:43:18;8.25;;;4.75;;
25359;SDS011;13311;51.386;0.016;2023-10-08T02:48:20;6.88;;;3.85;;
25359;SDS011;13311;51.386;0.016;2023-10-08T02:53:20;7.35;;;4.30;;
25359;SDS011;13311;51.386;0.016;2023-10-08T02:58:25;5.97;;;3.78;;
25359;SDS011;13311;51.386;0.016;2023-10-08T03:03:27;7.75;;;3.60;;
25359;SDS011;13311;51.386;0.016;2023-10-08T03:08:29;7.90;;;4.55;;
25359;SDS011;13311;51.386;0.016;2023-10-08T03:13:31;6.38;;;4.18;;
25359;SDS011;13311;51.386;0.016;2023-10-08T03:18:31;7.30;;;3.95;;
25359;SDS011;13311;51.386;0.016;2023-10-08T03:28:51;6.97;;;3.92;;
25359;SDS011;13311;51.386;0.016;2023-10-08T03:33:58;7.13;;;4.50;;
25359;SDS011;13311;51.386;0.016;2023-10-08T03:38:58;6.40;;;3.80;;
25359;SDS011;13311;51.386;0.016;2023-10-08T03:44:09;5.55;;;3.67;;
25359;SDS011;13311;51.386;0.016;2023-10-08T03:49:13;7.30;;;3.95;;
25359;SDS011;13311;51.386;0.016;2023-10-08T03:54:23;8.40;;;3.83;;
25359;SDS011;13311;51.386;0.016;2023-10-08T03:59:30;6.63;;;4.27;;
25359;SDS011;13311;51.386;0.016;2023-10-08T04:04:34;7.05;;;4.22;;
25359;SDS011;13311;51.386;0.016;2023-10-08T04:09:57;6.50;;;4.30;;
25359;SDS011;13311;51.386;0.016;2023-10-08T04:15:19;8.13;;;4.57;;
25359;SDS011;13311;51.386;0.016;2023-10-08T04:20:20;5.38;;;3.60;;
25359;SDS011;13311;51.386;0.016;2023-10-08T04:25:33;10.07;;;4.30;;
25359;SDS011;13311;51.386;0.016;2023-10-08T04:30:34;10.90;;;4.82;;
25359;SDS011;13311;51.386;0.016;2023-10-08T04:35:36;10.57;;;4.20;;
25359;SDS011;13311;51.386;0.016;2023-10-08T04:40:48;7.20;;;4.10;;
25359;SDS011;13311;51.386;0.016;2023-10-08T04:45:59;7.50;;;4.10;;
25359;SDS011;13311;51.386;0.016;2023-10-08T04:51:19;9.77;;;4.35;;
25359;SDS011;13311;51.386;0.016;2023-10-08T04:56:22;9.70;;;4.35;;
25359;SDS011;13311;51.386;0.016;2023-10-08T05:01:23;5.95;;;4.22;;
25359;SDS011;13311;51.386;0.016;2023-10-08T05:06:40;9.57;;;4.03;;
25359;SDS011;13311;51.386;0.016;2023-10-08T05:11:51;6.38;;;3.90;;
25359;SDS011;13311;51.386;0.016;2023-10-08T05:16:52;7.18;;;4.07;;
25359;SDS011;13311;51.386;0.016;2023-10-08T05:22:10;6.95;;;4.05;;
25359;SDS011;13311;51.386;0.016;2023-10-08T05:32:37;6.57;;;4.18;;
25359;SDS011;13311;51.386;0.016;2023-10-08T05:37:44;7.25;;;4.10;;
25359;SDS011;13311;51.386;0.016;2023-10-08T05:42:52;8.00;;;4.28;;
25359;SDS011;13311;51.386;0.016;2023-10-08T05:48:01;5.53;;;4.18;;
25359;SDS011;13311;51.386;0.016;2023-10-08T05:53:15;10.20;;;4.80;;
25359;SDS011;13311;51.386;0.016;2023-10-08T05:58:29;7.03;;;3.78;;
25359;SDS011;13311;51.386;0.016;2023-10-08T06:03:45;5.35;;;3.75;;
25359;SDS011;13311;51.386;0.016;2023-10-08T06:09:00;10.23;;;4.45;;
25359;SDS011;13311;51.386;0.016;2023-10-08T06:14:21;15.23;;;4.30;;
25359;SDS011;13311;51.386;0.016;2023-10-08T06:19:48;9.40;;;4.28;;
25359;SDS011;13311;51.386;0.016;2023-10-08T06:24:52;5.68;;;3.63;;
25359;SDS011;13311;51.386;0.016;2023-10-08T06:30:13;11.05;;;4.15;;
25359;SDS011;13311;51.386;0.016;2023-10-08T06:35:16;10.50;;;4.47;;
25359;SDS011;13311;51.386;0.016;2023-10-08T06:40:18;7.88;;;3.78;;
25359;SDS011;13311;51.386;0.016;2023-10-08T06:45:37;7.38;;;3.92;;
25359;SDS011;13311;51.386;0.016;2023-10-08T06:50:39;7.00;;;4.00;;
25359;SDS011;13311;51.386;0.016;2023-10-08T06:55:41;8.57;;;3.95;;
25359;SDS011;13311;51.386;0.016;2023-10-08T07:00:42;5.53;;;4.20;;
25359;SDS011;13311;51.386;0.016;2023-10-08T07:05:49;9.80;;;5.10;;
25359;SDS011;13311;51.386;0.016;2023-10-08T07:10:54;8.95;;;4.05;;
25359;SDS011;13311;51.386;0.016;2023-10-08T07:15:56;7.47;;;4.00;;
25359;SDS011;13311;51.386;0.016;2023-10-08T07:20:57;8.80;;;4.47;;
25359;SDS011;13311;51.386;0.016;2023-10-08T07:26:02;8.77;;;4.28;;
25359;SDS011;13311;51.386;0.016;2023-10-08T07:31:13;7.60;;;3.63;;
25359;SDS011;13311;51.386;0.016;2023-10-08T07:36:15;9.20;;;4.55;;
25359;SDS011;13311;51.386;0.016;2023-10-08T07:41:18;6.50;;;4.22;;
25359;SDS011;13311;51.386;0.016;2023-10-08T07:46:20;7.28;;;3.90;;
25359;SDS011;13311;51.386;0.016;2023-10-08T07:51:27;5.05;;;3.88;;
25359;SDS011;13311;51.386;0.016;2023-10-08T07:56:28;7.47;;;4.30;;
25359;SDS011;13311;51.386;0.016;2023-10-08T08:01:30;7.95;;;4.70;;
25359;SDS011;13311;51.386;0.016;2023-10-08T08:06:33;8.57;;;4.20;;
25359;SDS011;13311;51.386;0.016;2023-10-08T08:11:34;6.05;;;3.50;;
25359;SDS011;13311;51.386;0.016;2023-10-08T08:16:36;7.07;;;3.80;;
25359;SDS011;13311;51.386;0.016;2023-10-08T08:21:37;8.15;;;4.07;;
25359;SDS011;13311;51.386;0.016;2023-10-08T08:26:45;8.30;;;3.85;;
25359;SDS011;13311;51.386;0.016;2023-10-08T08:32:01;5.75;;;3.65;;
25359;SDS011;13311;51.386;0.016;2023-10-08T08:37:04;3.45;;;2.58;;
25359;SDS011;13311;51.386;0.016;2023-10-08T08:42:05;4.28;;;2.92;;
25359;SDS011;13311;51.386;0.016;2023-10-08T08:47:05;5.40;;;2.45;;
25359;SDS011;13311;51.386;0.016;2023-10-08T08:52:07;3.92;;;2.58;;
25359;SDS011;13311;51.386;0.016;2023-10-08T08:57:09;10.40;;;3.63;;
25359;SDS011;13311;51.386;0.016;2023-10-08T09:02:14;4.82;;;2.78;;
25359;SDS011;13311;51.386;0.016;2023-10-08T09:07:19;6.82;;;3.80;;
25359;SDS011;13311;51.386;0.016;2023-10-08T09:12:21;8.73;;;4.40;;
25359;SDS011;13311;51.386;0.016;2023-10-08T09:17:23;6.32;;;3.58;;
25359;SDS011;13311;51.386;0.016;2023-10-08T09:22:26;9.90;;;3.35;;
25359;SDS011;13311;51.386;0.016;2023-10-08T09:27:27;6.05;;;3.05;;
25359;SDS011;13311;51.386;0.016;2023-10-08T09:32:27;5.68;;;3.50;;
25359;SDS011;13311;51.386;0.016;2023-10-08T09:37:30;5.60;;;3.63;;
25359;SDS011;13311;51.386;0.016;2023-10-08T09:42:31;6.28;;;3.92;;
25359;SDS011;13311;51.386;0.016;2023-10-08T09:47:38;6.43;;;3.72;;
25359;SDS011;13311;51.386;0.016;2023-10-08T09:52:52;5.90;;;3.55;;
25359;SDS011;13311;51.386;0.016;2023-10-08T09:58:11;3.90;;;2.60;;
25359;SDS011;13311;51.386;0.016;2023-10-08T10:03:14;4.60;;;3.10;;
25359;SDS011;13311;51.386;0.016;2023-10-08T10:08:15;3.97;;;2.58;;
25359;SDS011;13311;51.386;0.016;2023-10-08T10:13:16;4.82;;;2.67;;
25359;SDS011;13311;51.386;0.016;2023-10-08T10:23:35;3.45;;;2.50;;
25359;SDS011;13311;51.386;0.016;2023-10-08T10:28:36;3.15;;;2.55;;
25359;SDS011;13311;51.386;0.016;2023-10-08T10:33:37;2.95;;;2.20;;
25359;SDS011;13311;51.386;0.016;2023-10-08T10:38:40;4.93;;;2.50;;
25359;SDS011;13311;51.386;0.016;2023-10-08T10:43:43;5.40;;;2.85;;
25359;SDS011;13311;51.386;0.016;2023-10-08T10:48:52;7.18;;;2.88;;
25359;SDS011;13311;51.386;0.016;2023-10-08T10:54:12;5.55;;;3.42;;
25359;SDS011;13311;51.386;0.016;2023-10-08T10:59:20;7.55;;;3.08;;
25359;SDS011;13311;51.386;0.016;2023-10-08T11:04:27;4.68;;;2.90;;
25359;SDS011;13311;51.386;0.016;2023-10-08T11:09:30;7.47;;;4.10;;
25359;SDS011;13311;51.386;0.016;2023-10-08T11:14:40;7.30;;;3.55;;
25359;SDS011;13311;51.386;0.016;2023-10-08T11:19:46;4.70;;;3.25;;
25359;SDS011;13311;51.386;0.016;2023-10-08T11:24:47;9.10;;;3.97;;
25359;SDS011;13311;51.386;0.016;2023-10-08T11:29:48;6.95;;;3.38;;
25359;SDS011;13311;51.386;0.016;2023-10-08T11:35:00;3.38;;;2.40;;
25359;SDS011;13311;51.386;0.016;2023-10-08T11:40:01;4.70;;;2.95;;
25359;SDS011;13311;51.386;0.016;2023-10-08T11:45:17;4.88;;;2.70;;
25359;SDS011;13311;51.386;0.016;2023-10-08T11:50:18;5.10;;;2.97;;
25359;SDS011;13311;51.386;0.016;2023-10-08T11:55:19;5.15;;;2.80;;
25359;SDS011;13311;51.386;0.016;2023-10-08T12:00:20;4.40;;;2.75;;
25359;SDS011;13311;51.386;0.016;2023-10-08T12:05:24;4.22;;;2.72;;
25359;SDS011;13311;51.386;0.016;2023-10-08T12:10:25;3.40;;;2.53;;
25359;SDS011;13311;51.386;0.016;2023-10-08T12:15:26;3.63;;;2.60;;
25359;SDS011;13311;51.386;0.016;2023-10-08T12:20:37;3.47;;;2.25;;
25359;SDS011;13311;51.386;0.016;2023-10-08T12:25:38;3.30;;;2.40;;
25359;SDS011;13311;51.386;0.016;2023-10-08T12:30:39;4.35;;;2.63;;
25359;SDS011;13311;51.386;0.016;2023-10-08T12:35:43;2.75;;;2.28;;
25359;SDS011;13311;51.386;0.016;2023-10-08T12:40:44;4.80;;;3.00;;
25359;SDS011;13311;51.386;0.016;2023-10-08T12:45:48;6.45;;;3.20;;
25359;SDS011;13311;51.386;0.016;2023-10-08T12:50:53;3.72;;;2.63;;
25359;SDS011;13311;51.386;0.016;2023-10-08T12:55:58;5.70;;;3.22;;
25359;SDS011;13311;51.386;0.016;2023-10-08T13:01:00;3.53;;;2.47;;
25359;SDS011;13311;51.386;0.016;2023-10-08T13:06:03;3.67;;;2.33;;
25359;SDS011;13311;51.386;0.016;2023-10-08T13:11:04;3.35;;;2.75;;
25359;SDS011;13311;51.386;0.016;2023-10-08T13:16:05;3.40;;;2.30;;
25359;SDS011;13311;51.386;0.016;2023-10-08T13:21:07;4.90;;;3.40;;
25359;SDS011;13311;51.386;0.016;2023-10-08T13:26:09;6.07;;;3.10;;
25359;SDS011;13311;51.386;0.016;2023-10-08T13:36:19;3.83;;;2.63;;
25359;SDS011;13311;51.386;0.016;2023-10-08T13:41:19;5.25;;;2.60;;
25359;SDS011;13311;51.386;0.016;2023-10-08T13:46:20;4.75;;;3.22;;
25359;SDS011;13311;51.386;0.016;2023-10-08T13:51:25;5.75;;;3.25;;
25359;SDS011;13311;51.386;0.016;2023-10-08T13:56:26;5.18;;;2.50;;
25359;SDS011;13311;51.386;0.016;2023-10-08T14:01:31;4.68;;;2.90;;
25359;SDS011;13311;51.386;0.016;2023-10-08T14:06:35;3.80;;;3.33;;
25359;SDS011;13311;51.386;0.016;2023-10-08T14:11:37;5.65;;;3.90;;
25359;SDS011;13311;51.386;0.016;2023-10-08T14:16:38;4.30;;;3.05;;
25359;SDS011;13311;51.386;0.016;2023-10-08T14:21:43;6.82;;;3.55;;
25359;SDS011;13311;51.386;0.016;2023-10-08T14:26:53;18.05;;;4.50;;
25359;SDS011;13311;51.386;0.016;2023-10-08T14:31:57;7.40;;;4.57;;
25359;SDS011;13311;51.386;0.016;2023-10-08T14:36:59;6.63;;;4.28;;
25359;SDS011;13311;51.386;0.016;2023-10-08T14:42:19;5.93;;;4.53;;
25359;SDS011;13311;51.386;0.016;2023-10-08T14:47:38;8.13;;;4.28;;
25359;SDS011;13311;51.386;0.016;2023-10-08T14:52:39;7.43;;;4.80;;
25359;SDS011;13311;51.386;0.016;2023-10-08T14:57:40;8.48;;;6.10;;
25359;SDS011;13311;51.386;0.016;2023-10-08T15:02:42;7.00;;;5.15;;
25359;SDS011;13311;51.386;0.016;2023-10-08T15:07:42;5.70;;;3.75;;
25359;SDS011;13311;51.386;0.016;2023-10-08T15:12:43;6.05;;;3.83;;
25359;SDS011;13311;51.386;0.016;2023-10-08T15:17:44;7.10;;;4.05;;
25359;SDS011;13311;51.386;0.016;2023-10-08T15:22:47;6.30;;;4.03;;
25359;SDS011;13311;51.386;0.016;2023-10-08T15:27:49;8.27;;;4.22;;
25359;SDS011;13311;51.386;0.016;2023-10-08T15:32:50;5.03;;;3.67;;
25359;SDS011;13311;51.386;0.016;2023-10-08T15:37:52;7.90;;;4.97;;
25359;SDS011;13311;51.386;0.016;2023-10-08T15:42:55;15.57;;;7.53;;
25359;SDS011;13311;51.386;0.016;2023-10-08T15:47:57;13.70;;;6.18;;
25359;SDS011;13311;51.386;0.016;2023-10-08T15:52:58;9.63;;;5.10;;
25359;SDS011;13311;51.386;0.016;2023-10-08T15:57:59;8.15;;;4.70;;
25359;SDS011;13311;51.386;0.016;2023-10-08T16:03:00;6.60;;;4.85;;
25359;SDS011;13311;51.386;0.016;2023-10-08T16:08:00;6.32;;;4.32;;
25359;SDS011;13311;51.386;0.016;2023-10-08T16:13:01;10.88;;;6.72;;
25359;SDS011;13311;51.386;0.016;2023-10-08T16:18:04;7.60;;;4.40;;
25359;SDS011;13311;51.386;0.016;2023-10-08T16:23:05;6.40;;;4.10;;
25359;SDS011;13311;51.386;0.016;2023-10-08T16:28:07;6.15;;;4.43;;
25359;SDS011;13311;51.386;0.016;2023-10-08T16:33:08;7.35;;;4.03;;
25359;SDS011;13311;51.386;0.016;2023-10-08T16:38:09;6.68;;;3.35;;
25359;SDS011;13311;51.386;0.016;2023-10-08T16:43:11;6.00;;;3.63;;
25359;SDS011;13311;51.386;0.016;2023-10-08T16:48:15;8.88;;;4.88;;
25359;SDS011;13311;51.386;0.016;2023-10-08T16:53:16;7.05;;;4.25;;
25359;SDS011;13311;51.386;0.016;2023-10-08T16:58:16;10.88;;;5.47;;
25359;SDS011;13311;51.386;0.016;2023-10-08T17:03:18;5.75;;;4.25;;
25359;SDS011;13311;51.386;0.016;2023-10-08T17:08:21;9.52;;;4.72;;
25359;SDS011;13311;51.386;0.016;2023-10-08T17:13:22;8.85;;;4.28;;
25359;SDS011;13311;51.386;0.016;2023-10-08T17:18:23;7.57;;;4.32;;
25359;SDS011;13311;51.386;0.016;2023-10-08T17:23:26;9.55;;;6.25;;
25359;SDS011;13311;51.386;0.016;2023-10-08T17:28:26;10.65;;;5.20;;
25359;SDS011;13311;51.386;0.016;2023-10-08T17:33:27;6.47;;;4.35;;
25359;SDS011;13311;51.386;0.016;2023-10-08T17:38:29;12.77;;;7.57;;
25359;SDS011;13311;51.386;0.016;2023-10-08T17:43:31;8.98;;;5.90;;
25359;SDS011;13311;51.386;0.016;2023-10-08T17:48:31;9.85;;;5.30;;
25359;SDS011;13311;51.386;0.016;2023-10-08T17:53:36;12.10;;;6.00;;
25359;SDS011;13311;51.386;0.016;2023-10-08T17:58:36;8.43;;;5.10;;
25359;SDS011;13311;51.386;0.016;2023-10-08T18:03:37;8.32;;;4.93;;
25359;SDS011;13311;51.386;0.016;2023-10-08T18:08:39;8.32;;;4.70;;
25359;SDS011;13311;51.386;0.016;2023-10-08T18:13:41;9.00;;;5.72;;
25359;SDS011;13311;51.386;0.016;2023-10-08T18:18:41;13.43;;;8.85;;
25359;SDS011;13311;51.386;0.016;2023-10-08T18:23:44;20.52;;;14.07;;
25359;SDS011;13311;51.386;0.016;2023-10-08T18:28:47;49.15;;;33.72;;
25359;SDS011;13311;51.386;0.016;2023-10-08T18:33:48;32.45;;;20.85;;
25359;SDS011;13311;51.386;0.016;2023-10-08T18:38:50;9.38;;;7.72;;
25359;SDS011;13311;51.386;0.016;2023-10-08T18:43:51;15.55;;;7.00;;
25359;SDS011;13311;51.386;0.016;2023-10-08T18:48:55;9.10;;;5.85;;
25359;SDS011;13311;51.386;0.016;2023-10-08T18:53:56;9.23;;;5.78;;
25359;SDS011;13311;51.386;0.016;2023-10-08T18:59:05;8.22;;;5.69;;
25359;SDS011;13311;51.386;0.016;2023-10-08T19:04:08;8.00;;;5.20;;
25359;SDS011;13311;51.386;0.016;2023-10-08T19:09:09;7.10;;;4.90;;
25359;SDS011;13311;51.386;0.016;2023-10-08T19:14:11;9.20;;;5.13;;
25359;SDS011;13311;51.386;0.016;2023-10-08T19:19:14;7.72;;;4.93;;
25359;SDS011;13311;51.386;0.016;2023-10-08T19:24:15;10.25;;;5.25;;
25359;SDS011;13311;51.386;0.016;2023-10-08T19:29:16;6.85;;;4.60;;
25359;SDS011;13311;51.386;0.016;2023-10-08T19:34:18;8.23;;;4.30;;
25359;SDS011;13311;51.386;0.016;2023-10-08T19:39:18;7.22;;;5.20;;
25359;SDS011;13311;51.386;0.016;2023-10-08T19:44:19;10.02;;;5.47;;
25359;SDS011;13311;51.386;0.016;2023-10-08T19:49:20;9.88;;;5.82;;
25359;SDS011;13311;51.386;0.016;2023-10-08T19:54:21;8.65;;;5.22;;
25359;SDS011;13311;51.386;0.016;2023-10-08T19:59:22;10.02;;;5.55;;
25359;SDS011;13311;51.386;0.016;2023-10-08T20:04:24;8.55;;;5.15;;
25359;SDS011;13311;51.386;0.016;2023-10-08T20:09:25;6.28;;;4.65;;
25359;SDS011;13311;51.386;0.016;2023-10-08T20:14:27;9.18;;;5.25;;
25359;SDS011;13311;51.386;0.016;2023-10-08T20:19:28;7.68;;;3.63;;
25359;SDS011;13311;51.386;0.016;2023-10-08T20:24:31;7.57;;;4.47;;
25359;SDS011;13311;51.386;0.016;2023-10-08T20:29:32;10.32;;;4.60;;
25359;SDS011;13311;51.386;0.016;2023-10-08T20:34:33;8.60;;;4.38;;
25359;SDS011;13311;51.386;0.016;2023-10-08T20:39:34;7.82;;;4.65;;
25359;SDS011;13311;51.386;0.016;2023-10-08T20:44:39;7.38;;;4.53;;
25359;SDS011;13311;51.386;0.016;2023-10-08T20:49:39;9.50;;;4.75;;
25359;SDS011;13311;51.386;0.016;2023-10-08T20:54:42;7.07;;;3.70;;
25359;SDS011;13311;51.386;0.016;2023-10-08T20:59:43;9.38;;;4.40;;
25359;SDS011;13311;51.386;0.016;2023-10-08T21:04:43;7.15;;;4.22;;
25359;SDS011;13311;51.386;0.016;2023-10-08T21:09:44;7.63;;;4.13;;
25359;SDS011;13311;51.386;0.016;2023-10-08T21:14:45;7.68;;;4.63;;
25359;SDS011;13311;51.386;0.016;2023-10-08T21:19:45;6.80;;;4.07;;
25359;SDS011;13311;51.386;0.016;2023-10-08T21:24:46;8.90;;;4.35;;
25359;SDS011;13311;51.386;0.016;2023-10-08T21:29:48;10.40;;;4.57;;
25359;SDS011;13311;51.386;0.016;2023-10-08T21:34:49;7.15;;;4.20;;
25359;SDS011;13311;51.386;0.016;2023-10-08T21:39:50;8.55;;;4.47;;
25359;SDS011;13311;51.386;0.016;2023-10-08T21:44:51;7.00;;;3.78;;
25359;SDS011;13311;51.386;0.016;2023-10-08T21:49:52;7.05;;;3.90;;
25359;SDS011;13311;51.386;0.016;2023-10-08T21:54:53;7.18;;;4.18;;
25359;SDS011;13311;51.386;0.016;2023-10-08T21:59:55;6.40;;;4.50;;
25359;SDS011;13311;51.386;0.016;2023-10-08T22:04:55;8.93;;;4.68;;
25359;SDS011;13311;51.386;0.016;2023-10-08T22:09:58;6.75;;;3.67;;
25359;SDS011;13311;51.386;0.016;2023-10-08T22:14:59;9.82;;;4.35;;
25359;SDS011;13311;51.386;0.016;2023-10-08T22:20:16;9.60;;;4.47;;
25359;SDS011;13311;51.386;0.016;2023-10-08T22:25:36;7.55;;;4.43;;
25359;SDS011;13311;51.386;0.016;2023-10-08T22:30:42;8.02;;;3.95;;
25359;SDS011;13311;51.386;0.016;2023-10-08T22:35:52;11.15;;;4.32;;
25359;SDS011;13311;51.386;0.016;2023-10-08T22:40:54;6.80;;;4.20;;
25359;SDS011;13311;51.386;0.016;2023-10-08T22:45:57;7.45;;;4.40;;
25359;SDS011;13311;51.386;0.016;2023-10-08T22:50:58;5.97;;;4.20;;
25359;SDS011;13311;51.386;0.016;2023-10-08T22:56:02;6.38;;;4.13;;
25359;SDS011;13311;51.386;0.016;2023-10-08T23:01:12;7.22;;;4.53;;
25359;SDS011;13311;51.386;0.016;2023-10-08T23:06:19;7.35;;;4.43;;
25359;SDS011;13311;51.386;0.016;2023-10-08T23:11:23;7.10;;;4.68;;
25359;SDS011;13311;51.386;0.016;2023-10-08T23:16:24;5.65;;;3.72;;
25359;SDS011;13311;51.386;0.016;2023-10-08T23:21:29;7.22;;;4.65;;
25359;SDS011;13311;51.386;0.016;2023-10-08T23:26:30;10.90;;;4.60;;
25359;SDS011;13311;51.386;0.016;2023-10-08T23:31:31;10.65;;;5.43;;
25359;SDS011;13311;51.386;0.016;2023-10-08T23:36:32;8.13;;;4.32;;
25359;SDS011;13311;51.386;0.016;2023-10-08T23:41:33;7.68;;;4.43;;
25359;SDS011;13311;51.386;0.016;2023-10-08T23:46:47;6.00;;;3.90;;
25359;SDS011;13311;51.386;0.016;2023-10-08T23:52:01;6.28;;;3.85;;
25359;SDS011;13311;51.386;0.016;2023-10-08T23:57:04;7.90;;;4.15;;
